sensor_id;sensor_type;location;lat;lon;timestamp;P1;durP1;ratioP1;P2;durP2;ratioP2
43678;SDS011;29279;50.858;4.392;2023-02-13T00:01:26;128.63;;;52.83;;
43678;SDS011;29279;50.858;4.392;2023-02-13T00:03:51;114.57;;;51.28;;
43678;SDS011;29279;50.858;4.392;2023-02-13T00:06:17;114.03;;;51.30;;
43678;SDS011;29279;50.858;4.392;2023-02-13T00:08:43;119.45;;;53.33;;
43678;SDS011;29279;50.858;4.392;2023-02-13T00:11:08;122.40;;;53.67;;
43678;SDS011;29279;50.858;4.392;2023-02-13T00:13:34;113.45;;;51.33;;
43678;SDS011;29279;50.858;4.392;2023-02-13T00:16:01;126.82;;;53.55;;
43678;SDS011;29279;50.858;4.392;2023-02-13T00:18:28;121.15;;;53.97;;
43678;SDS011;29279;50.858;4.392;2023-02-13T00:21:05;121.50;;;52.20;;
43678;SDS011;29279;50.858;4.392;2023-02-13T00:23:33;128.02;;;53.28;;
43678;SDS011;29279;50.858;4.392;2023-02-13T00:26:00;130.68;;;53.25;;
43678;SDS011;29279;50.858;4.392;2023-02-13T00:28:29;123.43;;;54.13;;
43678;SDS011;29279;50.858;4.392;2023-02-13T00:31:01;124.45;;;55.30;;
43678;SDS011;29279;50.858;4.392;2023-02-13T00:33:30;127.15;;;53.10;;
43678;SDS011;29279;50.858;4.392;2023-02-13T00:36:07;129.05;;;53.88;;
43678;SDS011;29279;50.858;4.392;2023-02-13T00:38:35;128.30;;;53.08;;
43678;SDS011;29279;50.858;4.392;2023-02-13T00:41:02;130.75;;;55.15;;
43678;SDS011;29279;50.858;4.392;2023-02-13T00:43:28;131.02;;;55.13;;
43678;SDS011;29279;50.858;4.392;2023-02-13T00:45:54;138.25;;;56.40;;
43678;SDS011;29279;50.858;4.392;2023-02-13T00:48:20;145.85;;;57.58;;
43678;SDS011;29279;50.858;4.392;2023-02-13T00:50:46;132.70;;;55.95;;
43678;SDS011;29279;50.858;4.392;2023-02-13T00:53:12;136.38;;;58.35;;
43678;SDS011;29279;50.858;4.392;2023-02-13T00:55:38;138.50;;;55.53;;
43678;SDS011;29279;50.858;4.392;2023-02-13T00:58:04;135.27;;;54.92;;
43678;SDS011;29279;50.858;4.392;2023-02-13T01:00:29;139.88;;;55.72;;
43678;SDS011;29279;50.858;4.392;2023-02-13T01:02:55;137.73;;;56.13;;
43678;SDS011;29279;50.858;4.392;2023-02-13T01:05:21;132.90;;;56.50;;
43678;SDS011;29279;50.858;4.392;2023-02-13T01:07:47;127.72;;;54.60;;
43678;SDS011;29279;50.858;4.392;2023-02-13T01:10:12;143.98;;;58.17;;
43678;SDS011;29279;50.858;4.392;2023-02-13T01:12:38;132.95;;;57.08;;
43678;SDS011;29279;50.858;4.392;2023-02-13T01:15:04;139.55;;;55.72;;
43678;SDS011;29279;50.858;4.392;2023-02-13T01:17:30;142.20;;;58.05;;
43678;SDS011;29279;50.858;4.392;2023-02-13T01:19:55;147.05;;;60.05;;
43678;SDS011;29279;50.858;4.392;2023-02-13T01:22:21;147.45;;;59.17;;
43678;SDS011;29279;50.858;4.392;2023-02-13T01:24:47;140.30;;;58.17;;
43678;SDS011;29279;50.858;4.392;2023-02-13T01:27:12;128.95;;;54.90;;
43678;SDS011;29279;50.858;4.392;2023-02-13T01:29:38;141.07;;;57.20;;
43678;SDS011;29279;50.858;4.392;2023-02-13T01:32:04;142.60;;;55.28;;
43678;SDS011;29279;50.858;4.392;2023-02-13T01:34:33;144.15;;;57.72;;
43678;SDS011;29279;50.858;4.392;2023-02-13T01:36:58;148.13;;;58.95;;
43678;SDS011;29279;50.858;4.392;2023-02-13T01:39:24;136.52;;;55.67;;
43678;SDS011;29279;50.858;4.392;2023-02-13T01:41:50;136.68;;;56.20;;
43678;SDS011;29279;50.858;4.392;2023-02-13T01:47:11;140.20;;;55.47;;
43678;SDS011;29279;50.858;4.392;2023-02-13T01:49:39;147.05;;;56.08;;
43678;SDS011;29279;50.858;4.392;2023-02-13T01:52:05;142.00;;;55.88;;
43678;SDS011;29279;50.858;4.392;2023-02-13T01:54:33;139.48;;;55.92;;
43678;SDS011;29279;50.858;4.392;2023-02-13T01:57:01;139.35;;;58.45;;
43678;SDS011;29279;50.858;4.392;2023-02-13T01:59:33;137.77;;;55.35;;
43678;SDS011;29279;50.858;4.392;2023-02-13T02:04:31;136.70;;;53.63;;
43678;SDS011;29279;50.858;4.392;2023-02-13T02:09:54;127.25;;;52.55;;
43678;SDS011;29279;50.858;4.392;2023-02-13T02:12:39;127.47;;;54.22;;
43678;SDS011;29279;50.858;4.392;2023-02-13T02:15:10;129.75;;;53.13;;
43678;SDS011;29279;50.858;4.392;2023-02-13T02:17:36;138.73;;;54.95;;
43678;SDS011;29279;50.858;4.392;2023-02-13T02:28:28;173.13;;;59.92;;
43678;SDS011;29279;50.858;4.392;2023-02-13T02:33:46;169.82;;;61.80;;
43678;SDS011;29279;50.858;4.392;2023-02-13T02:39:17;152.52;;;55.90;;
43678;SDS011;29279;50.858;4.392;2023-02-13T02:55:49;172.63;;;58.72;;
43678;SDS011;29279;50.858;4.392;2023-02-13T03:01:06;164.70;;;59.90;;
43678;SDS011;29279;50.858;4.392;2023-02-13T03:03:55;142.15;;;56.50;;
43678;SDS011;29279;50.858;4.392;2023-02-13T03:06:45;134.88;;;52.38;;
43678;SDS011;29279;50.858;4.392;2023-02-13T03:09:18;140.50;;;57.50;;
43678;SDS011;29279;50.858;4.392;2023-02-13T03:12:07;149.10;;;56.92;;
43678;SDS011;29279;50.858;4.392;2023-02-13T03:14:52;145.88;;;57.08;;
43678;SDS011;29279;50.858;4.392;2023-02-13T03:17:17;143.63;;;55.78;;
43678;SDS011;29279;50.858;4.392;2023-02-13T03:20:19;135.07;;;54.10;;
43678;SDS011;29279;50.858;4.392;2023-02-13T03:28:53;135.57;;;52.22;;
43678;SDS011;29279;50.858;4.392;2023-02-13T03:31:50;144.60;;;51.78;;
43678;SDS011;29279;50.858;4.392;2023-02-13T03:34:25;137.75;;;55.67;;
43678;SDS011;29279;50.858;4.392;2023-02-13T03:37:16;126.63;;;52.33;;
43678;SDS011;29279;50.858;4.392;2023-02-13T03:40:08;129.70;;;50.88;;
43678;SDS011;29279;50.858;4.392;2023-02-13T03:42:42;116.90;;;47.22;;
43678;SDS011;29279;50.858;4.392;2023-02-13T03:45:14;119.85;;;47.58;;
43678;SDS011;29279;50.858;4.392;2023-02-13T03:48:04;128.80;;;48.83;;
43678;SDS011;29279;50.858;4.392;2023-02-13T03:50:35;129.23;;;48.50;;
43678;SDS011;29279;50.858;4.392;2023-02-13T03:55:37;128.43;;;49.08;;
43678;SDS011;29279;50.858;4.392;2023-02-13T03:58:27;116.25;;;46.08;;
43678;SDS011;29279;50.858;4.392;2023-02-13T04:01:14;116.20;;;45.95;;
43678;SDS011;29279;50.858;4.392;2023-02-13T04:06:31;115.50;;;45.30;;
43678;SDS011;29279;50.858;4.392;2023-02-13T04:09:03;110.40;;;45.35;;
43678;SDS011;29279;50.858;4.392;2023-02-13T04:11:33;108.97;;;41.97;;
43678;SDS011;29279;50.858;4.392;2023-02-13T04:14:17;105.20;;;41.08;;
43678;SDS011;29279;50.858;4.392;2023-02-13T04:16:48;88.57;;;38.58;;
43678;SDS011;29279;50.858;4.392;2023-02-13T04:19:19;83.03;;;37.17;;
43678;SDS011;29279;50.858;4.392;2023-02-13T04:21:47;88.90;;;36.22;;
43678;SDS011;29279;50.858;4.392;2023-02-13T04:24:18;82.55;;;35.30;;
43678;SDS011;29279;50.858;4.392;2023-02-13T04:26:44;79.97;;;35.75;;
43678;SDS011;29279;50.858;4.392;2023-02-13T04:29:10;83.18;;;37.90;;
43678;SDS011;29279;50.858;4.392;2023-02-13T04:31:36;89.72;;;37.85;;
43678;SDS011;29279;50.858;4.392;2023-02-13T04:34:02;78.45;;;36.80;;
43678;SDS011;29279;50.858;4.392;2023-02-13T04:36:27;93.47;;;38.05;;
43678;SDS011;29279;50.858;4.392;2023-02-13T04:38:53;86.20;;;36.42;;
43678;SDS011;29279;50.858;4.392;2023-02-13T04:41:19;75.75;;;34.72;;
43678;SDS011;29279;50.858;4.392;2023-02-13T04:43:45;81.63;;;35.67;;
43678;SDS011;29279;50.858;4.392;2023-02-13T04:46:11;73.47;;;33.80;;
43678;SDS011;29279;50.858;4.392;2023-02-13T04:48:36;75.97;;;34.78;;
43678;SDS011;29279;50.858;4.392;2023-02-13T04:51:02;75.25;;;34.80;;
43678;SDS011;29279;50.858;4.392;2023-02-13T04:53:28;79.10;;;34.70;;
43678;SDS011;29279;50.858;4.392;2023-02-13T04:55:53;77.38;;;34.78;;
43678;SDS011;29279;50.858;4.392;2023-02-13T04:58:19;70.20;;;32.30;;
43678;SDS011;29279;50.858;4.392;2023-02-13T05:00:45;73.20;;;33.33;;
43678;SDS011;29279;50.858;4.392;2023-02-13T05:03:11;67.43;;;33.42;;
43678;SDS011;29279;50.858;4.392;2023-02-13T05:05:37;76.15;;;32.83;;
43678;SDS011;29279;50.858;4.392;2023-02-13T05:08:04;72.28;;;31.38;;
43678;SDS011;29279;50.858;4.392;2023-02-13T05:10:30;69.95;;;30.80;;
43678;SDS011;29279;50.858;4.392;2023-02-13T05:12:56;66.70;;;30.88;;
43678;SDS011;29279;50.858;4.392;2023-02-13T05:15:22;68.78;;;30.35;;
43678;SDS011;29279;50.858;4.392;2023-02-13T05:17:48;67.38;;;29.80;;
43678;SDS011;29279;50.858;4.392;2023-02-13T05:20:14;64.00;;;29.77;;
43678;SDS011;29279;50.858;4.392;2023-02-13T05:22:58;62.10;;;29.10;;
43678;SDS011;29279;50.858;4.392;2023-02-13T05:25:42;56.92;;;27.23;;
43678;SDS011;29279;50.858;4.392;2023-02-13T05:28:08;59.20;;;28.20;;
43678;SDS011;29279;50.858;4.392;2023-02-13T05:30:53;58.83;;;27.50;;
43678;SDS011;29279;50.858;4.392;2023-02-13T05:33:19;54.80;;;27.73;;
43678;SDS011;29279;50.858;4.392;2023-02-13T05:35:45;57.13;;;27.40;;
43678;SDS011;29279;50.858;4.392;2023-02-13T05:38:11;56.38;;;27.85;;
43678;SDS011;29279;50.858;4.392;2023-02-13T05:40:36;65.65;;;29.20;;
43678;SDS011;29279;50.858;4.392;2023-02-13T05:43:02;58.58;;;27.67;;
43678;SDS011;29279;50.858;4.392;2023-02-13T05:45:30;56.28;;;25.75;;
43678;SDS011;29279;50.858;4.392;2023-02-13T05:47:56;57.53;;;27.65;;
43678;SDS011;29279;50.858;4.392;2023-02-13T05:50:22;55.42;;;27.88;;
43678;SDS011;29279;50.858;4.392;2023-02-13T05:52:47;56.40;;;24.67;;
43678;SDS011;29279;50.858;4.392;2023-02-13T05:55:13;51.55;;;25.17;;
43678;SDS011;29279;50.858;4.392;2023-02-13T05:57:39;51.85;;;25.77;;
43678;SDS011;29279;50.858;4.392;2023-02-13T06:00:05;49.58;;;24.98;;
43678;SDS011;29279;50.858;4.392;2023-02-13T06:02:31;51.38;;;25.98;;
43678;SDS011;29279;50.858;4.392;2023-02-13T06:04:57;52.75;;;24.45;;
43678;SDS011;29279;50.858;4.392;2023-02-13T06:07:23;52.47;;;24.95;;
43678;SDS011;29279;50.858;4.392;2023-02-13T06:09:48;50.33;;;25.50;;
43678;SDS011;29279;50.858;4.392;2023-02-13T06:12:14;57.28;;;27.05;;
43678;SDS011;29279;50.858;4.392;2023-02-13T06:14:39;57.38;;;26.38;;
43678;SDS011;29279;50.858;4.392;2023-02-13T06:17:05;60.60;;;26.15;;
43678;SDS011;29279;50.858;4.392;2023-02-13T06:19:31;61.83;;;27.63;;
43678;SDS011;29279;50.858;4.392;2023-02-13T06:21:56;56.05;;;25.70;;
43678;SDS011;29279;50.858;4.392;2023-02-13T06:24:22;52.92;;;25.67;;
43678;SDS011;29279;50.858;4.392;2023-02-13T06:26:48;61.70;;;26.98;;
43678;SDS011;29279;50.858;4.392;2023-02-13T06:29:13;54.38;;;25.85;;
43678;SDS011;29279;50.858;4.392;2023-02-13T06:31:39;61.72;;;27.02;;
43678;SDS011;29279;50.858;4.392;2023-02-13T06:34:05;62.38;;;28.30;;
43678;SDS011;29279;50.858;4.392;2023-02-13T06:36:30;56.97;;;28.00;;
43678;SDS011;29279;50.858;4.392;2023-02-13T06:38:56;62.30;;;29.20;;
43678;SDS011;29279;50.858;4.392;2023-02-13T06:41:22;67.97;;;28.45;;
43678;SDS011;29279;50.858;4.392;2023-02-13T06:43:47;58.00;;;26.65;;
43678;SDS011;29279;50.858;4.392;2023-02-13T06:46:13;58.65;;;27.95;;
43678;SDS011;29279;50.858;4.392;2023-02-13T06:48:39;51.30;;;24.45;;
43678;SDS011;29279;50.858;4.392;2023-02-13T06:51:04;49.42;;;23.70;;
43678;SDS011;29279;50.858;4.392;2023-02-13T06:53:31;55.58;;;24.83;;
43678;SDS011;29279;50.858;4.392;2023-02-13T06:55:56;56.38;;;25.63;;
43678;SDS011;29279;50.858;4.392;2023-02-13T06:58:23;63.05;;;27.98;;
43678;SDS011;29279;50.858;4.392;2023-02-13T07:00:50;50.17;;;25.17;;
43678;SDS011;29279;50.858;4.392;2023-02-13T07:03:16;58.58;;;25.10;;
43678;SDS011;29279;50.858;4.392;2023-02-13T07:05:42;54.80;;;25.48;;
43678;SDS011;29279;50.858;4.392;2023-02-13T07:08:09;48.05;;;24.13;;
43678;SDS011;29279;50.858;4.392;2023-02-13T07:10:37;48.42;;;24.13;;
43678;SDS011;29279;50.858;4.392;2023-02-13T07:13:03;48.83;;;23.55;;
43678;SDS011;29279;50.858;4.392;2023-02-13T07:15:29;47.40;;;23.08;;
43678;SDS011;29279;50.858;4.392;2023-02-13T07:17:56;47.22;;;23.15;;
43678;SDS011;29279;50.858;4.392;2023-02-13T07:20:22;47.65;;;22.52;;
43678;SDS011;29279;50.858;4.392;2023-02-13T07:22:49;49.17;;;24.27;;
43678;SDS011;29279;50.858;4.392;2023-02-13T07:25:15;51.40;;;23.15;;
43678;SDS011;29279;50.858;4.392;2023-02-13T07:27:42;42.92;;;22.23;;
43678;SDS011;29279;50.858;4.392;2023-02-13T07:30:07;44.40;;;21.63;;
43678;SDS011;29279;50.858;4.392;2023-02-13T07:32:33;46.38;;;21.73;;
43678;SDS011;29279;50.858;4.392;2023-02-13T07:34:59;44.03;;;21.90;;
43678;SDS011;29279;50.858;4.392;2023-02-13T07:37:26;47.00;;;22.80;;
43678;SDS011;29279;50.858;4.392;2023-02-13T07:39:52;45.42;;;24.13;;
43678;SDS011;29279;50.858;4.392;2023-02-13T07:42:19;44.58;;;23.05;;
43678;SDS011;29279;50.858;4.392;2023-02-13T07:44:45;44.42;;;21.45;;
43678;SDS011;29279;50.858;4.392;2023-02-13T07:47:11;43.55;;;21.20;;
43678;SDS011;29279;50.858;4.392;2023-02-13T07:49:36;40.63;;;21.55;;
43678;SDS011;29279;50.858;4.392;2023-02-13T07:52:03;44.92;;;23.23;;
43678;SDS011;29279;50.858;4.392;2023-02-13T07:54:29;42.25;;;20.65;;
43678;SDS011;29279;50.858;4.392;2023-02-13T07:56:56;41.38;;;21.13;;
43678;SDS011;29279;50.858;4.392;2023-02-13T07:59:22;44.53;;;20.13;;
43678;SDS011;29279;50.858;4.392;2023-02-13T08:01:47;39.05;;;20.05;;
43678;SDS011;29279;50.858;4.392;2023-02-13T08:04:13;42.85;;;20.42;;
43678;SDS011;29279;50.858;4.392;2023-02-13T08:06:39;34.67;;;19.02;;
43678;SDS011;29279;50.858;4.392;2023-02-13T08:09:05;37.08;;;19.33;;
43678;SDS011;29279;50.858;4.392;2023-02-13T08:11:51;41.25;;;20.10;;
43678;SDS011;29279;50.858;4.392;2023-02-13T08:14:24;33.20;;;19.20;;
43678;SDS011;29279;50.858;4.392;2023-02-13T08:16:51;36.92;;;19.42;;
43678;SDS011;29279;50.858;4.392;2023-02-13T08:19:17;48.20;;;19.50;;
43678;SDS011;29279;50.858;4.392;2023-02-13T08:21:43;33.67;;;20.58;;
43678;SDS011;29279;50.858;4.392;2023-02-13T08:24:10;33.95;;;19.52;;
43678;SDS011;29279;50.858;4.392;2023-02-13T08:26:36;38.50;;;20.42;;
43678;SDS011;29279;50.858;4.392;2023-02-13T08:29:03;33.47;;;18.90;;
43678;SDS011;29279;50.858;4.392;2023-02-13T08:31:30;31.23;;;19.63;;
43678;SDS011;29279;50.858;4.392;2023-02-13T08:33:56;31.33;;;18.95;;
43678;SDS011;29279;50.858;4.392;2023-02-13T08:36:22;34.53;;;18.58;;
43678;SDS011;29279;50.858;4.392;2023-02-13T08:38:48;32.22;;;19.30;;
43678;SDS011;29279;50.858;4.392;2023-02-13T08:41:14;31.20;;;19.48;;
43678;SDS011;29279;50.858;4.392;2023-02-13T08:43:42;32.72;;;19.35;;
43678;SDS011;29279;50.858;4.392;2023-02-13T08:46:08;31.15;;;20.05;;
43678;SDS011;29279;50.858;4.392;2023-02-13T08:48:34;29.10;;;18.65;;
43678;SDS011;29279;50.858;4.392;2023-02-13T08:51:04;28.55;;;18.88;;
43678;SDS011;29279;50.858;4.392;2023-02-13T08:53:35;28.60;;;19.27;;
43678;SDS011;29279;50.858;4.392;2023-02-13T08:56:02;33.50;;;19.80;;
43678;SDS011;29279;50.858;4.392;2023-02-13T08:58:28;30.33;;;19.05;;
43678;SDS011;29279;50.858;4.392;2023-02-13T09:00:54;27.13;;;18.33;;
43678;SDS011;29279;50.858;4.392;2023-02-13T09:03:20;27.33;;;18.83;;
43678;SDS011;29279;50.858;4.392;2023-02-13T09:05:45;26.77;;;17.52;;
43678;SDS011;29279;50.858;4.392;2023-02-13T09:08:14;24.58;;;17.55;;
43678;SDS011;29279;50.858;4.392;2023-02-13T09:10:40;26.45;;;18.55;;
43678;SDS011;29279;50.858;4.392;2023-02-13T09:13:09;33.53;;;18.25;;
43678;SDS011;29279;50.858;4.392;2023-02-13T09:15:37;26.92;;;17.75;;
43678;SDS011;29279;50.858;4.392;2023-02-13T09:18:04;26.00;;;17.88;;
43678;SDS011;29279;50.858;4.392;2023-02-13T09:20:30;27.83;;;18.20;;
43678;SDS011;29279;50.858;4.392;2023-02-13T09:22:56;27.67;;;18.10;;
43678;SDS011;29279;50.858;4.392;2023-02-13T09:25:22;24.52;;;16.90;;
43678;SDS011;29279;50.858;4.392;2023-02-13T09:27:47;29.48;;;18.58;;
43678;SDS011;29279;50.858;4.392;2023-02-13T09:30:13;28.33;;;17.52;;
43678;SDS011;29279;50.858;4.392;2023-02-13T09:32:47;24.52;;;17.08;;
43678;SDS011;29279;50.858;4.392;2023-02-13T09:35:16;25.70;;;17.10;;
43678;SDS011;29279;50.858;4.392;2023-02-13T09:37:43;25.27;;;17.25;;
43678;SDS011;29279;50.858;4.392;2023-02-13T09:40:44;24.63;;;17.15;;
43678;SDS011;29279;50.858;4.392;2023-02-13T09:43:11;25.80;;;15.55;;
43678;SDS011;29279;50.858;4.392;2023-02-13T09:45:53;27.35;;;17.88;;
43678;SDS011;29279;50.858;4.392;2023-02-13T09:48:29;24.20;;;17.13;;
43678;SDS011;29279;50.858;4.392;2023-02-13T09:50:57;28.25;;;17.80;;
43678;SDS011;29279;50.858;4.392;2023-02-13T09:53:25;25.70;;;17.27;;
43678;SDS011;29279;50.858;4.392;2023-02-13T10:03:53;25.15;;;14.98;;
43678;SDS011;29279;50.858;4.392;2023-02-13T10:06:37;25.70;;;15.75;;
43678;SDS011;29279;50.858;4.392;2023-02-13T10:09:19;23.70;;;16.05;;
43678;SDS011;29279;50.858;4.392;2023-02-13T10:14:52;22.25;;;16.30;;
43678;SDS011;29279;50.858;4.392;2023-02-13T10:17:35;22.52;;;16.08;;
43678;SDS011;29279;50.858;4.392;2023-02-13T10:20:06;21.17;;;15.45;;
43678;SDS011;29279;50.858;4.392;2023-02-13T10:22:43;23.90;;;14.98;;
43678;SDS011;29279;50.858;4.392;2023-02-13T10:25:29;22.33;;;15.30;;
43678;SDS011;29279;50.858;4.392;2023-02-13T10:28:05;24.13;;;15.93;;
43678;SDS011;29279;50.858;4.392;2023-02-13T10:30:39;23.90;;;15.50;;
43678;SDS011;29279;50.858;4.392;2023-02-13T10:35:49;19.95;;;14.30;;
43678;SDS011;29279;50.858;4.392;2023-02-13T10:38:22;20.77;;;14.82;;
43678;SDS011;29279;50.858;4.392;2023-02-13T10:43:32;19.75;;;13.82;;
43678;SDS011;29279;50.858;4.392;2023-02-13T10:51:46;19.48;;;14.43;;
43678;SDS011;29279;50.858;4.392;2023-02-13T10:56:57;21.58;;;15.48;;
43678;SDS011;29279;50.858;4.392;2023-02-13T11:02:25;20.90;;;15.27;;
43678;SDS011;29279;50.858;4.392;2023-02-13T11:08:09;23.15;;;14.75;;
43678;SDS011;29279;50.858;4.392;2023-02-13T11:10:42;20.52;;;15.15;;
43678;SDS011;29279;50.858;4.392;2023-02-13T11:13:23;19.73;;;13.00;;
43678;SDS011;29279;50.858;4.392;2023-02-13T11:16:09;20.02;;;13.60;;
43678;SDS011;29279;50.858;4.392;2023-02-13T11:18:41;19.50;;;13.38;;
43678;SDS011;29279;50.858;4.392;2023-02-13T11:21:19;23.83;;;14.27;;
43678;SDS011;29279;50.858;4.392;2023-02-13T11:23:50;19.92;;;14.23;;
43678;SDS011;29279;50.858;4.392;2023-02-13T11:26:34;23.90;;;15.10;;
43678;SDS011;29279;50.858;4.392;2023-02-13T11:29:15;20.98;;;14.05;;
43678;SDS011;29279;50.858;4.392;2023-02-13T11:31:44;24.83;;;14.43;;
43678;SDS011;29279;50.858;4.392;2023-02-13T11:34:24;17.92;;;14.02;;
43678;SDS011;29279;50.858;4.392;2023-02-13T11:36:52;21.88;;;14.13;;
43678;SDS011;29279;50.858;4.392;2023-02-13T11:39:22;21.73;;;14.18;;
43678;SDS011;29279;50.858;4.392;2023-02-13T11:41:50;19.30;;;13.68;;
43678;SDS011;29279;50.858;4.392;2023-02-13T11:44:27;19.05;;;13.00;;
43678;SDS011;29279;50.858;4.392;2023-02-13T11:46:56;17.58;;;13.88;;
43678;SDS011;29279;50.858;4.392;2023-02-13T11:49:23;21.33;;;14.57;;
43678;SDS011;29279;50.858;4.392;2023-02-13T11:51:53;21.80;;;14.43;;
43678;SDS011;29279;50.858;4.392;2023-02-13T11:59:54;22.50;;;14.13;;
43678;SDS011;29279;50.858;4.392;2023-02-13T12:02:47;18.95;;;14.23;;
43678;SDS011;29279;50.858;4.392;2023-02-13T12:12:53;17.05;;;12.20;;
43678;SDS011;29279;50.858;4.392;2023-02-13T12:15:27;21.23;;;13.18;;
43678;SDS011;29279;50.858;4.392;2023-02-13T12:18:02;18.95;;;13.25;;
43678;SDS011;29279;50.858;4.392;2023-02-13T12:28:57;20.27;;;12.65;;
43678;SDS011;29279;50.858;4.392;2023-02-13T12:36:24;18.23;;;13.73;;
43678;SDS011;29279;50.858;4.392;2023-02-13T12:39:31;25.25;;;13.23;;
43678;SDS011;29279;50.858;4.392;2023-02-13T12:45:01;26.92;;;19.35;;
43678;SDS011;29279;50.858;4.392;2023-02-13T12:47:46;22.00;;;13.63;;
43678;SDS011;29279;50.858;4.392;2023-02-13T12:50:37;19.20;;;13.55;;
43678;SDS011;29279;50.858;4.392;2023-02-13T12:56:22;22.02;;;12.23;;
43678;SDS011;29279;50.858;4.392;2023-02-13T13:02:02;20.77;;;13.90;;
43678;SDS011;29279;50.858;4.392;2023-02-13T13:15:36;22.13;;;13.35;;
43678;SDS011;29279;50.858;4.392;2023-02-13T13:21:49;19.45;;;12.93;;
43678;SDS011;29279;50.858;4.392;2023-02-13T13:29:09;17.10;;;12.80;;
43678;SDS011;29279;50.858;4.392;2023-02-13T13:31:41;23.02;;;12.20;;
43678;SDS011;29279;50.858;4.392;2023-02-13T13:34:15;18.33;;;12.45;;
43678;SDS011;29279;50.858;4.392;2023-02-13T13:36:52;18.10;;;13.10;;
43678;SDS011;29279;50.858;4.392;2023-02-13T13:39:31;18.05;;;11.75;;
43678;SDS011;29279;50.858;4.392;2023-02-13T13:44:49;19.80;;;13.80;;
43678;SDS011;29279;50.858;4.392;2023-02-13T13:50:20;18.52;;;11.95;;
43678;SDS011;29279;50.858;4.392;2023-02-13T13:53:24;18.20;;;12.52;;
43678;SDS011;29279;50.858;4.392;2023-02-13T14:01:26;19.30;;;11.98;;
43678;SDS011;29279;50.858;4.392;2023-02-13T14:03:56;16.58;;;12.10;;
43678;SDS011;29279;50.858;4.392;2023-02-13T14:06:24;19.33;;;11.55;;
43678;SDS011;29279;50.858;4.392;2023-02-13T14:11:51;17.15;;;11.07;;
43678;SDS011;29279;50.858;4.392;2023-02-13T14:14:50;20.52;;;12.43;;
43678;SDS011;29279;50.858;4.392;2023-02-13T14:17:10;17.70;;;11.05;;
43678;SDS011;29279;50.858;4.392;2023-02-13T14:19:39;19.27;;;11.43;;
43678;SDS011;29279;50.858;4.392;2023-02-13T14:24:54;18.70;;;11.95;;
43678;SDS011;29279;50.858;4.392;2023-02-13T14:27:26;14.48;;;11.40;;
43678;SDS011;29279;50.858;4.392;2023-02-13T14:29:55;17.90;;;11.45;;
43678;SDS011;29279;50.858;4.392;2023-02-13T14:35:04;14.68;;;10.45;;
43678;SDS011;29279;50.858;4.392;2023-02-13T14:37:50;14.18;;;10.25;;
43678;SDS011;29279;50.858;4.392;2023-02-13T14:43:19;14.18;;;10.35;;
43678;SDS011;29279;50.858;4.392;2023-02-13T14:45:47;16.02;;;11.70;;
43678;SDS011;29279;50.858;4.392;2023-02-13T14:48:17;16.63;;;11.43;;
43678;SDS011;29279;50.858;4.392;2023-02-13T14:50:48;20.48;;;11.88;;
43678;SDS011;29279;50.858;4.392;2023-02-13T14:53:17;20.30;;;11.02;;
43678;SDS011;29279;50.858;4.392;2023-02-13T14:55:58;18.77;;;10.52;;
43678;SDS011;29279;50.858;4.392;2023-02-13T14:58:34;16.98;;;10.15;;
43678;SDS011;29279;50.858;4.392;2023-02-13T15:01:07;16.63;;;10.85;;
43678;SDS011;29279;50.858;4.392;2023-02-13T15:03:48;19.17;;;11.50;;
43678;SDS011;29279;50.858;4.392;2023-02-13T15:06:32;18.63;;;10.30;;
43678;SDS011;29279;50.858;4.392;2023-02-13T15:09:02;17.13;;;10.85;;
43678;SDS011;29279;50.858;4.392;2023-02-13T15:11:39;17.65;;;10.77;;
43678;SDS011;29279;50.858;4.392;2023-02-13T15:16:44;20.08;;;9.65;;
43678;SDS011;29279;50.858;4.392;2023-02-13T15:19:18;14.13;;;9.27;;
43678;SDS011;29279;50.858;4.392;2023-02-13T15:21:49;20.60;;;10.05;;
43678;SDS011;29279;50.858;4.392;2023-02-13T15:24:21;12.20;;;9.10;;
43678;SDS011;29279;50.858;4.392;2023-02-13T15:27:00;13.50;;;8.95;;
43678;SDS011;29279;50.858;4.392;2023-02-13T15:29:28;15.65;;;9.68;;
43678;SDS011;29279;50.858;4.392;2023-02-13T15:31:55;16.23;;;9.43;;
43678;SDS011;29279;50.858;4.392;2023-02-13T15:34:25;16.55;;;10.07;;
43678;SDS011;29279;50.858;4.392;2023-02-13T15:36:54;13.88;;;8.98;;
43678;SDS011;29279;50.858;4.392;2023-02-13T15:39:27;11.68;;;9.27;;
43678;SDS011;29279;50.858;4.392;2023-02-13T15:41:55;13.90;;;9.43;;
43678;SDS011;29279;50.858;4.392;2023-02-13T15:44:30;17.42;;;9.38;;
43678;SDS011;29279;50.858;4.392;2023-02-13T15:47:03;15.98;;;8.70;;
43678;SDS011;29279;50.858;4.392;2023-02-13T15:49:30;16.45;;;9.02;;
43678;SDS011;29279;50.858;4.392;2023-02-13T15:52:24;14.52;;;8.95;;
43678;SDS011;29279;50.858;4.392;2023-02-13T15:54:58;17.77;;;8.80;;
43678;SDS011;29279;50.858;4.392;2023-02-13T15:57:24;16.92;;;8.70;;
43678;SDS011;29279;50.858;4.392;2023-02-13T15:59:51;13.68;;;8.40;;
43678;SDS011;29279;50.858;4.392;2023-02-13T16:02:22;12.02;;;8.23;;
43678;SDS011;29279;50.858;4.392;2023-02-13T16:05:10;12.30;;;8.15;;
43678;SDS011;29279;50.858;4.392;2023-02-13T16:07:48;13.77;;;8.25;;
43678;SDS011;29279;50.858;4.392;2023-02-13T16:10:16;13.27;;;8.15;;
43678;SDS011;29279;50.858;4.392;2023-02-13T16:12:49;16.83;;;8.38;;
43678;SDS011;29279;50.858;4.392;2023-02-13T16:15:16;18.48;;;8.80;;
43678;SDS011;29279;50.858;4.392;2023-02-13T16:17:43;12.05;;;8.10;;
43678;SDS011;29279;50.858;4.392;2023-02-13T16:28:15;12.55;;;8.07;;
43678;SDS011;29279;50.858;4.392;2023-02-13T16:30:44;18.58;;;8.80;;
43678;SDS011;29279;50.858;4.392;2023-02-13T16:40:51;13.38;;;8.63;;
43678;SDS011;29279;50.858;4.392;2023-02-13T16:56:43;21.00;;;10.10;;
43678;SDS011;29279;50.858;4.392;2023-02-13T17:04:48;18.48;;;10.65;;
43678;SDS011;29279;50.858;4.392;2023-02-13T17:10:16;27.60;;;11.98;;
43678;SDS011;29279;50.858;4.392;2023-02-13T17:12:47;20.08;;;10.43;;
43678;SDS011;29279;50.858;4.392;2023-02-13T17:15:15;24.70;;;11.50;;
43678;SDS011;29279;50.858;4.392;2023-02-13T17:17:43;23.33;;;11.02;;
43678;SDS011;29279;50.858;4.392;2023-02-13T17:20:13;25.38;;;11.32;;
43678;SDS011;29279;50.858;4.392;2023-02-13T17:22:42;23.73;;;10.73;;
43678;SDS011;29279;50.858;4.392;2023-02-13T17:25:23;26.05;;;11.93;;
43678;SDS011;29279;50.858;4.392;2023-02-13T17:27:52;25.63;;;12.65;;
43678;SDS011;29279;50.858;4.392;2023-02-13T17:30:21;25.17;;;11.45;;
43678;SDS011;29279;50.858;4.392;2023-02-13T17:32:49;29.27;;;11.93;;
43678;SDS011;29279;50.858;4.392;2023-02-13T17:35:19;21.00;;;11.40;;
43678;SDS011;29279;50.858;4.392;2023-02-13T17:37:45;24.45;;;11.73;;
43678;SDS011;29279;50.858;4.392;2023-02-13T17:40:14;21.65;;;12.27;;
43678;SDS011;29279;50.858;4.392;2023-02-13T17:42:42;20.52;;;11.45;;
43678;SDS011;29279;50.858;4.392;2023-02-13T17:45:10;20.83;;;11.20;;
43678;SDS011;29279;50.858;4.392;2023-02-13T17:47:39;20.77;;;12.00;;
43678;SDS011;29279;50.858;4.392;2023-02-13T17:50:05;24.30;;;11.82;;
43678;SDS011;29279;50.858;4.392;2023-02-13T17:52:32;19.90;;;11.30;;
43678;SDS011;29279;50.858;4.392;2023-02-13T17:54:58;24.88;;;12.00;;
43678;SDS011;29279;50.858;4.392;2023-02-13T17:57:24;25.50;;;12.68;;